Time;durP1;ratioP1;P1;durP2;ratioP2;P2;SDS_P1;SDS_P2;PMS_P1;PMS_P2;Temp;Humidity;BMP_temperature;BMP_pressure;BME280_temperature;BME280_humidity;BME280_pressure;Samples;Min_cycle;Max_cycle;Signal;HPM_P1;HPM_P2
2021/08/28 00:00:50;;;;;;;8.88;4.43;;;;;;;13.28;100.00;100623.13;5056987;28;20078;-83
2021/08/28 00:03:17;;;;;;;8.75;4.43;;;;;;;13.26;100.00;100617.09;5056856;28;20020;-83
2021/08/28 00:05:42;;;;;;;8.38;4.32;;;;;;;13.26;100.00;100617.09;5056869;28;20029;-82
2021/08/28 00:08:08;;;;;;;6.55;4.00;;;;;;;13.23;100.00;100611.94;5056499;28;20393;-82
2021/08/28 00:10:33;;;;;;;7.88;4.50;;;;;;;13.28;100.00;100615.31;5057247;28;20025;-83
2021/08/28 00:12:58;;;;;;;9.02;4.72;;;;;;;13.22;100.00;100621.50;5057473;28;20025;-83
2021/08/28 00:15:24;;;;;;;10.55;4.68;;;;;;;13.23;100.00;100619.75;5057994;28;20025;-83
2021/08/28 00:17:49;;;;;;;8.00;4.43;;;;;;;13.18;100.00;100614.69;5057206;28;20089;-83
2021/08/28 00:20:15;;;;;;;6.40;3.80;;;;;;;13.17;100.00;100614.69;5057545;28;20028;-83
2021/08/28 00:22:41;;;;;;;6.22;4.15;;;;;;;13.14;100.00;100620.84;5056606;28;20017;-83
2021/08/28 00:25:07;;;;;;;8.18;4.38;;;;;;;13.14;100.00;100613.03;5056498;28;20031;-83
2021/08/28 00:27:33;;;;;;;7.15;4.30;;;;;;;13.12;100.00;100609.63;5056282;28;20017;-83
2021/08/28 00:29:59;;;;;;;8.07;4.15;;;;;;;13.18;100.00;100613.78;5055562;28;20025;-83
2021/08/28 00:32:24;;;;;;;6.88;3.97;;;;;;;13.22;100.00;100610.22;5054955;28;20547;-83
2021/08/28 00:34:49;;;;;;;7.15;4.43;;;;;;;13.18;100.00;100604.25;5055989;28;20542;-83
2021/08/28 00:37:14;;;;;;;7.60;4.20;;;;;;;13.18;100.00;100614.69;5055926;28;20021;-83
2021/08/28 00:39:40;;;;;;;6.40;4.30;;;;;;;13.23;100.00;100611.94;5056409;28;20032;-83
2021/08/28 00:42:05;;;;;;;7.50;4.03;;;;;;;13.24;100.00;100611.03;5055101;28;20473;-82
2021/08/28 00:44:30;;;;;;;7.35;4.40;;;;;;;13.22;100.00;100616.28;5054915;28;20020;-83
2021/08/28 00:46:56;;;;;;;6.55;4.10;;;;;;;13.24;100.00;100608.41;5055819;28;20047;-83
2021/08/28 00:49:22;;;;;;;7.63;4.57;;;;;;;13.19;100.00;100616.38;5056147;28;20067;-84
2021/08/28 00:51:47;;;;;;;7.32;4.22;;;;;;;13.26;100.00;100617.09;5054973;28;20159;-84
2021/08/28 00:54:12;;;;;;;7.85;4.82;;;;;;;13.22;100.00;100612.84;5054868;28;20166;-84
2021/08/28 00:56:40;;;;;;;7.35;5.10;;;;;;;13.24;100.00;100619.72;5054800;28;20028;-84
2021/08/28 00:59:05;;;;;;;9.70;5.47;;;;;;;13.24;100.00;100619.72;5056044;28;20052;-83
2021/08/28 01:01:46;;;;;;;7.97;4.93;;;;;;;13.25;100.00;100618.00;5054781;28;20059;-84
2021/08/28 01:04:17;;;;;;;7.85;5.10;;;;;;;13.27;100.00;100617.06;5055125;28;20027;-84
2021/08/28 01:06:55;;;;;;;9.73;5.15;;;;;;;13.27;100.00;100616.19;5085508;22;20033;-91
2021/08/28 01:09:26;;;;;;;8.57;5.57;;;;;;;13.28;100.00;100625.72;5080460;28;20088;-89
2021/08/28 01:12:17;;;;;;;12.25;5.85;;;;;;;13.16;100.00;100626.03;5076674;28;20025;-91
2021/08/28 01:14:46;;;;;;;7.95;5.03;;;;;;;13.22;100.00;100621.50;5052313;28;20041;-91
2021/08/28 01:17:14;;;;;;;7.72;5.00;;;;;;;13.29;100.00;100627.41;5054719;28;20071;-92
2021/08/28 01:19:39;;;;;;;7.43;4.13;;;;;;;13.26;100.00;100630.09;5054688;28;20086;-91
2021/08/28 01:22:14;;;;;;;7.97;5.03;;;;;;;13.19;100.00;100631.16;5054058;28;20025;-91
2021/08/28 01:24:41;;;;;;;8.25;4.45;;;;;;;13.21;100.00;100632.81;5054325;28;20055;-91
2021/08/28 01:27:43;;;;;;;8.63;4.63;;;;;;;13.19;100.00;100633.75;5054190;28;20051;-91
2021/08/28 01:30:10;;;;;;;8.20;4.82;;;;;;;13.16;100.00;100626.88;5055244;28;20063;-92
2021/08/28 01:32:36;;;;;;;7.45;4.47;;;;;;;13.19;100.00;100628.56;5059266;28;20021;-92
2021/08/28 01:35:03;;;;;;;7.13;4.65;;;;;;;13.20;100.00;100630.25;5060892;28;20021;-92
2021/08/28 01:37:28;;;;;;;7.32;4.55;;;;;;;13.20;100.00;100631.09;5057674;28;20496;-91
2021/08/28 01:39:57;;;;;;;8.40;4.93;;;;;;;13.20;100.00;100630.25;5054383;28;20092;-91
2021/08/28 01:42:25;;;;;;;7.65;4.40;;;;;;;13.16;100.00;100631.25;5054504;28;20025;-91
2021/08/28 01:44:51;;;;;;;6.88;3.60;;;;;;;13.07;100.00;100638.41;5054382;28;20032;-91
2021/08/28 01:47:18;;;;;;;7.72;3.65;;;;;;;13.15;100.00;100635.59;5054030;28;20515;-91
2021/08/28 01:49:45;;;;;;;6.85;3.08;;;;;;;13.12;100.00;100638.28;5053567;28;20421;-91
2021/08/28 01:52:11;;;;;;;6.38;3.25;;;;;;;13.15;100.00;100638.19;5054350;28;20517;-91
2021/08/28 01:54:36;;;;;;;5.95;3.42;;;;;;;13.17;100.00;100638.16;5053390;28;20060;-91
2021/08/28 01:57:02;;;;;;;7.88;4.03;;;;;;;13.14;100.00;100639.94;5053804;28;20020;-91
2021/08/28 01:59:29;;;;;;;6.78;3.33;;;;;;;13.19;100.00;100638.97;5053560;28;20028;-91
2021/08/28 02:01:54;;;;;;;8.35;3.72;;;;;;;13.15;100.00;100643.41;5053451;28;20441;-91
2021/08/28 02:04:19;;;;;;;7.50;3.88;;;;;;;13.19;100.00;100641.56;5053571;28;20090;-91
2021/08/28 02:07:01;;;;;;;6.80;4.05;;;;;;;13.23;100.00;100648.38;5054000;28;20029;-91
2021/08/28 02:09:31;;;;;;;6.97;4.10;;;;;;;13.22;100.00;100644.09;5054298;28;20035;-91
2021/08/28 02:11:59;;;;;;;9.35;4.28;;;;;;;13.20;100.00;100640.66;5054797;28;20114;-91
2021/08/28 02:14:31;;;;;;;8.02;4.30;;;;;;;13.19;100.00;100644.19;5054361;28;20032;-91
2021/08/28 02:16:58;;;;;;;8.30;4.63;;;;;;;13.20;100.00;100645.88;5055788;28;20025;-91
2021/08/28 02:19:27;;;;;;;7.28;4.75;;;;;;;13.20;100.00;100644.13;5053862;28;20477;-91
2021/08/28 02:21:55;;;;;;;7.72;5.07;;;;;;;13.19;100.00;100644.19;5053901;28;20099;-91
2021/08/28 02:24:26;;;;;;;6.95;4.53;;;;;;;13.16;100.00;100641.66;5054586;28;20053;-91
2021/08/28 02:27:16;;;;;;;9.13;5.30;;;;;;;13.13;100.00;100637.38;5053876;28;20028;-91
2021/08/28 02:29:51;;;;;;;9.63;5.43;;;;;;;13.14;100.00;100634.72;5055092;28;20373;-91
2021/08/28 02:32:17;;;;;;;8.45;5.22;;;;;;;13.20;100.00;100632.84;5054288;28;20029;-91
2021/08/28 02:34:44;;;;;;;9.23;5.47;;;;;;;13.21;100.00;100638.03;5054034;28;20020;-91
2021/08/28 02:37:11;;;;;;;12.57;5.68;;;;;;;13.16;100.00;100636.44;5053621;28;20021;-91
2021/08/28 02:39:39;;;;;;;8.52;5.15;;;;;;;13.20;100.00;100645.88;5058478;28;20025;-92
2021/08/28 02:42:06;;;;;;;8.30;5.50;;;;;;;13.18;100.00;100632.91;5064076;28;20024;-92
2021/08/28 02:44:33;;;;;;;8.05;5.32;;;;;;;13.18;100.00;100634.63;5064751;28;20083;-92
2021/08/28 02:46:59;;;;;;;10.57;6.05;;;;;;;13.14;100.00;100642.53;5064617;28;20059;-92
2021/08/28 02:49:26;;;;;;;10.02;6.57;;;;;;;13.15;100.00;100635.59;5058867;28;20055;-92
2021/08/28 02:51:51;;;;;;;10.02;6.20;;;;;;;13.13;100.00;100633.03;5057286;28;20021;-92
2021/08/28 02:54:19;;;;;;;12.63;6.85;;;;;;;13.10;100.00;100635.72;5058543;28;20355;-92
2021/08/28 02:56:49;;;;;;;10.00;6.43;;;;;;;13.12;100.00;100628.72;5058734;28;20028;-91
2021/08/28 02:59:16;;;;;;;10.60;7.18;;;;;;;13.11;100.00;100634.81;5058429;28;20035;-91
2021/08/28 03:01:42;;;;;;;9.43;6.43;;;;;;;13.07;100.00;100637.53;5056372;28;20106;-91
2021/08/28 03:04:07;;;;;;;10.13;6.82;;;;;;;13.08;100.00;100628.81;5055523;28;20025;-91
2021/08/28 03:06:34;;;;;;;11.65;6.32;;;;;;;13.04;100.00;100630.66;5053812;28;20036;-91
2021/08/28 03:09:00;;;;;;;10.25;6.75;;;;;;;12.97;100.00;100631.75;5053738;28;20029;-91
2021/08/28 03:11:25;;;;;;;10.00;6.47;;;;;;;12.87;100.00;100627.69;5054685;28;20021;-91
2021/08/28 03:13:53;;;;;;;13.55;6.70;;;;;;;12.80;100.00;100639.97;5053444;28;20115;-91
2021/08/28 03:16:21;;;;;;;10.55;6.75;;;;;;;12.78;100.00;100627.94;5054445;28;20025;-91
2021/08/28 03:18:50;;;;;;;11.25;6.40;;;;;;;12.75;100.00;100633.22;5053705;28;20036;-91
2021/08/28 03:21:18;;;;;;;10.20;6.85;;;;;;;12.71;100.00;100619.41;5054344;28;20029;-91
2021/08/28 03:23:45;;;;;;;11.25;7.18;;;;;;;12.70;100.00;100629.88;5053746;28;20052;-91
2021/08/28 03:26:11;;;;;;;9.57;6.20;;;;;;;12.67;100.00;100633.38;5053680;28;20095;-91
2021/08/28 03:28:38;;;;;;;11.68;7.07;;;;;;;12.63;100.00;100629.16;5053224;28;20451;-91
2021/08/28 03:31:05;;;;;;;11.05;6.97;;;;;;;12.58;100.00;100636.22;5057612;28;20017;-91
2021/08/28 03:33:31;;;;;;;13.13;7.05;;;;;;;12.57;100.00;100635.38;5056556;28;20056;-91
2021/08/28 03:35:57;;;;;;;14.18;8.00;;;;;;;12.59;100.00;100636.22;5056448;28;20558;-91
2021/08/28 03:38:23;;;;;;;11.05;7.22;;;;;;;12.71;100.00;100636.75;5056481;28;20025;-90
2021/08/28 03:40:48;;;;;;;10.93;7.10;;;;;;;12.69;100.00;100644.63;5056252;28;20404;-90
2021/08/28 03:43:14;;;;;;;9.52;6.13;;;;;;;12.69;100.00;100649.84;5056032;28;20059;-91
2021/08/28 03:45:40;;;;;;;15.32;7.75;;;;;;;12.56;100.00;100651.91;5056008;28;20472;-91
2021/08/28 03:48:06;;;;;;;23.67;8.85;;;;;;;12.60;100.00;100655.28;5056130;28;20028;-90
2021/08/28 03:50:32;;;;;;;17.45;9.10;;;;;;;12.63;100.00;100663.00;5055931;28;20108;-91
2021/08/28 03:52:57;;;;;;;16.65;9.90;;;;;;;12.64;100.00;100659.50;5056059;28;20094;-90
2021/08/28 03:55:22;;;;;;;16.77;9.80;;;;;;;12.66;100.00;100652.50;5055727;28;20020;-90
2021/08/28 03:57:48;;;;;;;19.90;9.80;;;;;;;12.61;100.00;100665.63;5056010;28;20086;-90
2021/08/28 04:00:13;;;;;;;18.88;10.07;;;;;;;12.70;100.00;100666.28;5055855;28;20025;-91
2021/08/28 04:02:39;;;;;;;16.30;9.50;;;;;;;12.70;100.00;100653.28;5056202;28;20024;-91
2021/08/28 04:05:04;;;;;;;14.13;8.27;;;;;;;12.70;100.00;100659.34;5055697;28;20031;-90
2021/08/28 04:07:29;;;;;;;15.00;8.57;;;;;;;12.71;100.00;100663.63;5055178;28;20029;-90
2021/08/28 04:09:55;;;;;;;16.30;8.82;;;;;;;12.71;100.00;100660.19;5055259;28;20067;-90
2021/08/28 04:12:20;;;;;;;13.63;8.23;;;;;;;12.72;100.00;100667.97;5055708;28;20021;-90
2021/08/28 04:14:45;;;;;;;20.15;8.82;;;;;;;12.76;100.00;100650.53;5055462;28;20021;-91
2021/08/28 04:17:11;;;;;;;18.15;9.32;;;;;;;12.70;100.00;100655.88;5055572;28;20024;-90
2021/08/28 04:19:36;;;;;;;14.70;8.60;;;;;;;12.70;100.00;100664.53;5055381;28;20033;-90
2021/08/28 04:22:01;;;;;;;13.40;8.38;;;;;;;12.70;100.00;100658.50;5055486;28;20395;-90
2021/08/28 04:24:27;;;;;;;15.15;8.23;;;;;;;12.66;100.00;100666.38;5055178;28;20112;-90
2021/08/28 04:26:52;;;;;;;18.15;8.88;;;;;;;12.63;100.00;100658.66;5055182;28;20063;-90
2021/08/28 04:29:17;;;;;;;15.10;8.90;;;;;;;12.65;100.00;100672.47;5056036;28;20029;-90
2021/08/28 04:31:43;;;;;;;15.70;8.93;;;;;;;12.62;100.00;100677.75;5055796;28;20021;-90
2021/08/28 04:34:08;;;;;;;22.70;9.13;;;;;;;12.62;100.00;100682.97;5054872;28;20032;-90
2021/08/28 04:36:33;;;;;;;16.40;8.68;;;;;;;12.65;100.00;100682.00;5064473;28;20085;-90
2021/08/28 04:39:00;;;;;;;15.02;9.23;;;;;;;12.74;100.00;100678.31;5080952;28;20019;-88
2021/08/28 04:41:25;;;;;;;14.93;8.57;;;;;;;12.75;100.00;100682.66;5079792;28;20013;-89
2021/08/28 04:43:50;;;;;;;13.48;8.52;;;;;;;12.77;100.00;100686.06;5080414;28;20047;-89
2021/08/28 04:46:16;;;;;;;15.30;9.00;;;;;;;12.77;100.00;100696.47;5078654;28;20024;-90
2021/08/28 04:48:41;;;;;;;14.80;8.90;;;;;;;12.77;100.00;100686.91;5078319;28;20033;-90
2021/08/28 04:51:06;;;;;;;11.93;7.18;;;;;;;12.80;100.00;100684.22;5079987;28;20028;-90
2021/08/28 04:53:32;;;;;;;15.05;7.00;;;;;;;12.81;100.00;100678.16;5080303;28;20013;-89
2021/08/28 04:55:57;;;;;;;10.35;5.40;;;;;;;12.81;100.00;100685.97;5079384;28;20473;-91
2021/08/28 04:58:22;;;;;;;8.75;5.20;;;;;;;12.80;100.00;100684.22;5064235;28;20025;-92
2021/08/28 05:00:47;;;;;;;9.30;5.43;;;;;;;12.80;100.00;100697.25;5056190;28;20036;-92
2021/08/28 05:03:13;;;;;;;8.85;5.20;;;;;;;12.80;100.00;100685.97;5056429;28;20053;-92
2021/08/28 05:05:38;;;;;;;9.70;4.72;;;;;;;12.83;100.00;100696.31;5055691;28;20040;-92
2021/08/28 05:08:03;;;;;;;7.95;4.20;;;;;;;12.79;100.00;100698.16;5055869;28;20067;-92
2021/08/28 05:10:29;;;;;;;8.48;4.90;;;;;;;12.84;100.00;100698.03;5055867;28;20084;-92
2021/08/28 05:12:54;;;;;;;7.68;4.05;;;;;;;12.85;100.00;100700.59;5055834;28;20024;-92
2021/08/28 05:15:20;;;;;;;7.68;4.32;;;;;;;12.87;100.00;100697.97;5056055;28;20167;-93
2021/08/28 05:17:45;;;;;;;9.80;4.35;;;;;;;12.89;100.00;100701.38;5055176;28;20067;-91
2021/08/28 05:20:10;;;;;;;6.75;3.80;;;;;;;12.89;100.00;100696.16;5054496;28;20025;-91
2021/08/28 05:22:36;;;;;;;10.80;4.25;;;;;;;12.86;100.00;100704.03;5054252;28;20580;-91
2021/08/28 05:25:02;;;;;;;7.90;3.78;;;;;;;12.90;100.00;100697.88;5054271;28;20484;-91
2021/08/28 05:27:27;;;;;;;8.23;3.67;;;;;;;12.91;100.00;100707.41;5054133;28;20028;-91
2021/08/28 05:29:52;;;;;;;7.45;4.13;;;;;;;12.95;100.00;100697.75;5054100;28;20124;-91
2021/08/28 05:32:18;;;;;;;6.30;3.88;;;;;;;12.94;100.00;100699.50;5053824;28;20029;-92
2021/08/28 05:34:43;;;;;;;8.15;4.20;;;;;;;12.92;100.00;100705.66;5053795;28;20032;-91
2021/08/28 05:37:08;;;;;;;7.15;3.45;;;;;;;12.96;100.00;100702.94;5053888;28;20074;-92
2021/08/28 05:39:33;;;;;;;8.15;4.10;;;;;;;12.99;100.00;100705.47;5054397;28;20024;-91
2021/08/28 05:41:59;;;;;;;6.60;2.83;;;;;;;13.00;100.00;100712.38;5053666;28;20025;-91
2021/08/28 05:44:24;;;;;;;6.25;2.80;;;;;;;13.03;100.00;100712.28;5053896;28;20082;-91
2021/08/28 05:46:49;;;;;;;5.40;2.72;;;;;;;13.04;100.00;100706.19;5053583;28;20100;-91
2021/08/28 05:49:15;;;;;;;5.32;2.50;;;;;;;13.09;100.00;100708.69;5053739;28;20061;-91
2021/08/28 05:51:40;;;;;;;5.65;2.25;;;;;;;13.09;100.00;100700.88;5053247;28;20021;-91
2021/08/28 05:54:05;;;;;;;5.30;2.20;;;;;;;13.07;100.00;100700.88;5075351;28;20025;-89
2021/08/28 05:56:31;;;;;;;5.82;2.33;;;;;;;13.09;100.00;100700.88;5079114;28;20017;-90
2021/08/28 05:58:56;;;;;;;4.55;2.50;;;;;;;13.14;100.00;100701.59;5080143;28;20089;-88
2021/08/28 06:01:21;;;;;;;5.63;2.63;;;;;;;13.17;100.00;100700.66;5079286;28;20013;-90
2021/08/28 06:03:47;;;;;;;5.55;2.90;;;;;;;13.18;100.00;100705.84;5079221;28;20028;-90
2021/08/28 06:06:12;;;;;;;7.05;3.22;;;;;;;13.20;100.00;100705.78;5079120;28;20024;-90
2021/08/28 06:08:37;;;;;;;6.47;3.03;;;;;;;13.24;100.00;100707.41;5079198;28;20015;-89
2021/08/28 06:11:02;;;;;;;6.70;3.55;;;;;;;13.30;100.00;100707.25;5058735;28;20029;-90
2021/08/28 06:13:28;;;;;;;10.05;5.20;;;;;;;13.27;100.00;100712.56;5053420;28;20507;-91
2021/08/28 06:15:53;;;;;;;8.63;4.35;;;;;;;13.23;100.00;100709.16;5053039;28;20074;-91
2021/08/28 06:18:18;;;;;;;8.32;4.47;;;;;;;13.22;100.00;100706.59;5053111;28;20392;-91
2021/08/28 06:20:43;;;;;;;10.35;5.35;;;;;;;13.32;100.00;100718.50;5052966;28;20040;-91
2021/08/28 06:23:09;;;;;;;9.70;5.50;;;;;;;13.39;100.00;100716.59;5052640;28;20028;-91
2021/08/28 06:25:34;;;;;;;12.35;5.47;;;;;;;13.49;100.00;100713.69;5052784;28;20064;-91
2021/08/28 06:27:59;;;;;;;9.57;5.70;;;;;;;13.61;100.00;100709.03;5052798;28;20480;-90
2021/08/28 06:30:25;;;;;;;10.13;6.32;;;;;;;13.76;100.00;100712.06;5053189;28;20021;-90
2021/08/28 06:32:50;;;;;;;10.95;5.88;;;;;;;13.86;100.00;100707.44;5052798;28;20551;-91
2021/08/28 06:35:15;;;;;;;10.93;6.65;;;;;;;13.94;100.00;100717.63;5053331;28;20064;-91
2021/08/28 06:37:40;;;;;;;11.30;5.57;;;;;;;13.86;100.00;100717.88;5052611;28;20041;-90
2021/08/28 06:40:06;;;;;;;11.38;6.20;;;;;;;13.86;100.00;100717.00;5052661;28;20016;-90
2021/08/28 06:42:31;;;;;;;11.45;6.88;;;;;;;13.96;100.00;100721.06;5052406;28;20021;-90
2021/08/28 06:44:57;;;;;;;11.25;6.53;;;;;;;13.89;100.00;100717.78;5052457;28;20488;-91
2021/08/28 06:47:22;;;;;;;13.38;6.80;;;;;;;14.07;100.00;100712.88;5052439;28;20041;-91
2021/08/28 06:49:47;;;;;;;11.95;6.30;;;;;;;14.11;100.00;100717.13;5052403;28;20503;-91
2021/08/28 06:52:13;;;;;;;12.07;6.45;;;;;;;14.23;100.00;100707.19;5053716;28;20029;-91
2021/08/28 06:54:38;;;;;;;10.13;6.80;;;;;;;14.21;100.00;100713.34;5052603;28;20021;-91
2021/08/28 06:57:03;;;;;;;11.10;6.13;;;;;;;14.26;100.00;100707.06;5053608;28;20021;-90
2021/08/28 06:59:28;;;;;;;15.40;7.60;;;;;;;14.31;100.00;100706.06;5052557;28;20476;-90
2021/08/28 07:01:53;;;;;;;10.13;6.07;;;;;;;14.32;100.00;100715.63;5052181;28;20028;-89
2021/08/28 07:04:19;;;;;;;13.27;7.03;;;;;;;14.26;100.00;100717.50;5052088;28;20029;-91
2021/08/28 07:06:44;;;;;;;13.40;6.80;;;;;;;14.32;100.00;100715.63;5077794;22;20389;-85
2021/08/28 07:09:10;;;;;;;10.02;5.47;;;;;;;14.17;100.00;100724.78;5054416;28;20104;-85
2021/08/28 07:11:35;;;;;;;12.02;5.75;;;;;;;14.12;100.00;100719.69;5053275;28;20025;-85
2021/08/28 07:14:00;;;;;;;10.15;5.82;;;;;;;14.24;100.00;100716.69;5052731;28;20024;-86
2021/08/28 07:16:26;;;;;;;9.05;5.43;;;;;;;14.19;100.00;100723.84;5052183;28;20499;-85
2021/08/28 07:18:51;;;;;;;14.40;6.32;;;;;;;14.20;100.00;100722.06;5053499;28;20032;-86
2021/08/28 07:21:18;;;;;;;12.27;6.22;;;;;;;14.25;100.00;100727.97;5053996;28;20032;-83
2021/08/28 07:23:44;;;;;;;12.98;5.80;;;;;;;14.21;100.00;100729.00;5054012;28;20032;-83
2021/08/28 07:26:09;;;;;;;13.07;6.55;;;;;;;14.18;100.00;100729.94;5054055;28;20017;-83
2021/08/28 07:28:34;;;;;;;11.13;5.25;;;;;;;14.25;100.00;100726.25;5053099;28;20025;-83
2021/08/28 07:31:02;;;;;;;9.50;5.30;;;;;;;14.35;100.00;100716.38;5053821;28;20029;-83
2021/08/28 07:33:27;;;;;;;8.73;4.68;;;;;;;14.31;100.00;100719.97;5053017;28;20017;-83
2021/08/28 07:35:52;;;;;;;10.77;5.00;;;;;;;14.54;100.00;100723.66;5052864;28;20028;-83
2021/08/28 07:38:17;;;;;;;10.57;5.20;;;;;;;14.67;100.00;100723.19;5052658;28;20032;-83
2021/08/28 07:40:43;;;;;;;9.80;5.32;;;;;;;14.49;100.00;100723.75;5054643;28;20044;-83
2021/08/28 07:43:08;;;;;;;8.55;5.20;;;;;;;14.47;100.00;100726.44;5052673;28;20534;-83
2021/08/28 07:45:33;;;;;;;9.02;4.75;;;;;;;14.48;100.00;100728.13;5052409;28;20021;-84
2021/08/28 07:47:58;;;;;;;10.68;5.60;;;;;;;14.37;100.00;100727.59;5053483;28;20029;-84
2021/08/28 07:50:24;;;;;;;7.47;4.75;;;;;;;14.33;100.00;100727.75;5053977;28;20188;-84
2021/08/28 07:52:49;;;;;;;10.20;4.68;;;;;;;14.24;100.00;100736.72;5052434;28;20021;-83
2021/08/28 07:55:15;;;;;;;7.93;4.75;;;;;;;14.51;100.00;100732.44;5053308;28;20033;-84
2021/08/28 07:57:41;;;;;;;10.45;4.78;;;;;;;14.56;100.00;100734.88;5052526;28;20017;-84
2021/08/28 08:00:09;;;;;;;11.73;4.82;;;;;;;14.37;100.00;100730.22;5053196;28;20029;-85
2021/08/28 08:02:35;;;;;;;8.50;4.78;;;;;;;14.59;100.00;100734.78;5052240;28;20472;-85
2021/08/28 08:05:01;;;;;;;11.82;4.88;;;;;;;14.64;100.00;100735.50;5052695;28;20032;-85
2021/08/28 08:07:27;;;;;;;8.55;4.50;;;;;;;14.74;100.00;100736.91;5053350;28;20480;-85
2021/08/28 08:09:52;;;;;;;10.77;4.82;;;;;;;14.88;100.00;100739.09;5053576;28;20037;-85
2021/08/28 08:12:17;;;;;;;11.95;4.75;;;;;;;14.86;100.00;100731.28;5052420;28;20059;-84
2021/08/28 08:14:43;;;;;;;9.27;5.00;;;;;;;14.78;100.00;100738.53;5053569;28;20082;-86
2021/08/28 08:17:08;;;;;;;10.98;4.15;;;;;;;14.91;100.00;100731.16;5055244;28;20071;-86
2021/08/28 08:19:34;;;;;;;12.23;3.78;;;;;;;14.79;100.00;100735.00;5055684;28;20025;-85
2021/08/28 08:21:59;;;;;;;10.43;4.53;;;;;;;15.19;100.00;100731.06;5056985;28;20053;-85
2021/08/28 08:24:24;;;;;;;9.30;4.28;;;;;;;15.09;100.00;100734.91;5055920;28;20063;-87
2021/08/28 08:26:50;;;;;;;7.63;3.90;;;;;;;15.36;100.00;100744.41;5055093;28;20539;-86
2021/08/28 08:29:15;;;;;;;9.15;3.85;;;;;;;15.40;100.00;100746.00;5055726;28;20116;-87
2021/08/28 08:31:53;;;;;;;;;;;;;;;;;;;;;
2021/08/28 08:34:23;;;;;;;7.72;3.90;;;;;;;15.16;100.00;100736.38;5060579;28;20104;-85
2021/08/28 08:36:50;;;;;;;9.88;4.30;;;;;;;15.36;100.00;100746.13;5056773;28;20049;-86
2021/08/28 08:39:15;;;;;;;11.73;4.45;;;;;;;15.01;100.00;100752.59;5056351;28;20108;-85
2021/08/28 08:41:44;;;;;;;8.55;4.07;;;;;;;14.95;100.00;100749.25;5055407;28;20028;-85
2021/08/28 08:44:11;;;;;;;7.97;3.85;;;;;;;14.88;100.00;100745.16;5055457;28;20396;-85
2021/08/28 08:46:37;;;;;;;8.48;3.40;;;;;;;14.98;100.00;100750.91;5055108;28;20021;-86
2021/08/28 08:49:04;;;;;;;9.13;3.72;;;;;;;15.18;100.00;100752.88;5055263;28;20075;-85
2021/08/28 08:51:31;;;;;;;10.02;2.95;;;;;;;15.04;100.00;100745.50;5056691;28;20021;-85
2021/08/28 08:53:56;;;;;;;9.30;3.75;;;;;;;15.26;100.00;100748.22;5054804;28;20024;-85
2021/08/28 08:56:23;;;;;;;9.27;3.42;;;;;;;15.16;100.00;100746.84;5054741;28;20117;-85
2021/08/28 08:58:50;;;;;;;7.07;3.72;;;;;;;15.03;100.00;100750.78;5055088;28;20036;-85
2021/08/28 09:01:15;;;;;;;6.95;3.53;;;;;;;14.95;100.00;100757.09;5056070;28;20025;-85
2021/08/28 09:03:40;;;;;;;6.68;3.63;;;;;;;15.01;100.00;100753.44;5056092;28;20032;-85
2021/08/28 09:06:06;;;;;;;15.93;4.32;;;;;;;15.10;100.00;100758.34;5054743;28;20033;-85
2021/08/28 09:08:31;;;;;;;7.55;3.42;;;;;;;15.27;100.00;100757.78;5055090;28;20381;-85
2021/08/28 09:10:57;;;;;;;6.75;3.00;;;;;;;15.44;100.00;100757.19;5055046;28;20032;-85
2021/08/28 09:13:24;;;;;;;6.38;2.92;;;;;;;15.60;100.00;100757.50;5055000;28;20615;-85
2021/08/28 09:15:54;;;;;;;6.75;3.30;;;;;;;15.47;100.00;100751.00;5054756;28;20047;-86
2021/08/28 09:18:19;;;;;;;5.30;2.83;;;;;;;15.50;100.00;100756.13;5056168;28;20040;-85
2021/08/28 09:20:45;;;;;;;7.75;2.83;;;;;;;15.72;100.00;100751.00;5056139;28;20079;-85
2021/08/28 09:23:13;;;;;;;7.65;3.30;;;;;;;15.70;100.00;100753.69;5055790;28;20025;-85
2021/08/28 09:25:40;;;;;;;5.90;2.33;;;;;;;15.43;100.00;100755.50;5055943;28;20036;-85
2021/08/28 09:28:08;;;;;;;7.13;2.40;;;;;;;15.57;100.00;100752.38;5054201;28;20439;-85
2021/08/28 09:30:39;;;;;;;4.88;2.20;;;;;;;15.50;100.00;100751.75;5054394;28;20021;-85
2021/08/28 09:33:07;;;;;;;4.97;2.22;;;;;;;15.59;100.00;100751.41;5054292;28;20017;-85
2021/08/28 09:35:38;;;;;;;5.63;2.40;;;;;;;15.60;100.00;100758.34;5054381;28;20384;-85
2021/08/28 09:38:14;;;;;;;4.90;2.10;;;;;;;15.27;100.00;100755.19;5054200;28;20082;-84
2021/08/28 09:40:43;;;;;;;4.00;1.67;;;;;;;15.22;100.00;100759.69;5055538;28;20021;-85
2021/08/28 09:43:12;;;;;;;4.75;2.10;;;;;;;15.55;100.00;100756.81;5053917;28;20079;-85
2021/08/28 09:45:37;;;;;;;3.47;1.30;;;;;;;15.82;100.00;100754.97;5053689;28;20048;-85
2021/08/28 09:48:06;;;;;;;5.20;1.30;;;;;;;15.97;100.00;100754.41;5053824;28;20485;-85
2021/08/28 09:50:35;;;;;;;4.30;1.75;;;;;;;15.76;100.00;100756.06;5055791;28;20099;-85
2021/08/28 09:53:12;;;;;;;5.30;1.77;;;;;;;16.03;100.00;100758.56;5053696;28;20020;-85
2021/08/28 09:55:39;;;;;;;3.58;1.33;;;;;;;15.97;100.00;100757.03;5054918;28;20029;-85
2021/08/28 09:58:06;;;;;;;2.35;0.90;;;;;;;15.18;100.00;100758.09;5053740;28;20017;-85
2021/08/28 10:00:33;;;;;;;6.05;1.42;;;;;;;15.38;100.00;100757.41;5054053;28;20119;-85
2021/08/28 10:03:04;;;;;;;2.85;1.00;;;;;;;15.33;100.00;100761.94;5053759;28;20387;-85
2021/08/28 10:05:31;;;;;;;5.13;1.00;;;;;;;15.55;100.00;100762.06;5054041;28;20484;-85
2021/08/28 10:07:59;;;;;;;3.30;1.20;;;;;;;15.99;100.00;100763.06;5054420;28;20028;-84
2021/08/28 10:10:25;;;;;;;3.28;1.00;;;;;;;16.44;100.00;100762.22;5056753;28;20033;-85
2021/08/28 10:12:50;;;;;;;3.35;1.17;;;;;;;16.95;100.00;100757.59;5054224;28;20507;-85
2021/08/28 10:15:17;;;;;;;4.05;1.20;;;;;;;16.55;100.00;100751.31;5053675;28;20032;-85
2021/08/28 10:17:43;;;;;;;3.13;1.08;;;;;;;16.89;100.00;100757.84;5053453;28;20016;-85
2021/08/28 10:20:09;;;;;;;2.63;1.15;;;;;;;16.81;100.00;100758.16;5053315;28;20021;-85
2021/08/28 10:22:37;;;;;;;7.03;1.40;;;;;;;17.25;100.00;100750.19;5053286;28;20024;-85
2021/08/28 10:25:07;;;;;;;2.40;0.85;;;;;;;16.43;100.00;100762.28;5053588;28;20404;-85
2021/08/28 10:27:33;;;;;;;3.53;1.38;;;;;;;15.87;100.00;100753.91;5053528;28;20044;-85
2021/08/28 10:29:58;;;;;;;2.22;0.93;;;;;;;16.27;100.00;100765.47;5053246;28;20060;-85
2021/08/28 10:32:24;;;;;;;2.42;1.05;;;;;;;15.98;100.00;100768.34;5052978;28;20029;-85
2021/08/28 10:34:50;;;;;;;3.60;1.45;;;;;;;15.99;100.00;100756.97;5053129;28;20056;-85
2021/08/28 10:37:16;;;;;;;5.43;1.52;;;;;;;15.84;100.00;100761.00;5054270;28;20035;-85
2021/08/28 10:39:42;;;;;;;3.30;1.30;;;;;;;15.85;100.00;100752.25;5052555;28;20495;-85
2021/08/28 10:42:10;;;;;;;6.25;1.50;;;;;;;15.93;100.00;100758.06;5053313;28;20040;-85
2021/08/28 10:44:35;;;;;;;4.10;1.50;;;;;;;15.62;100.00;100760.91;5054233;28;20032;-85
2021/08/28 10:47:14;;;;;;;3.42;1.20;;;;;;;15.56;100.00;100756.75;5052571;28;20017;-85
2021/08/28 10:49:50;;;;;;;4.63;1.40;;;;;;;15.51;100.00;100768.28;5053117;28;20025;-84
2021/08/28 10:52:17;;;;;;;4.88;1.48;;;;;;;15.33;100.00;100765.41;5052633;28;20067;-84
2021/08/28 10:54:43;;;;;;;3.50;1.40;;;;;;;15.56;100.00;100766.38;5052638;28;20025;-84
2021/08/28 10:57:19;;;;;;;6.15;1.50;;;;;;;15.63;100.00;100770.47;5052769;28;20108;-84
2021/08/28 10:59:45;;;;;;;4.10;1.20;;;;;;;16.73;100.00;100773.28;5053925;28;20385;-85
2021/08/28 11:02:12;;;;;;;4.25;1.23;;;;;;;17.14;100.00;100766.38;5053974;28;20028;-85
2021/08/28 11:04:42;;;;;;;9.85;1.73;;;;;;;17.30;100.00;100768.34;5052945;28;20042;-85
2021/08/28 11:07:28;;;;;;;3.53;1.40;;;;;;;16.51;100.00;100762.84;5052208;28;20102;-85
2021/08/28 11:10:09;;;;;;;3.67;1.40;;;;;;;16.36;100.00;100763.44;5053006;28;20025;-85
2021/08/28 11:12:48;;;;;;;3.78;1.25;;;;;;;16.57;100.00;100771.28;5053931;28;20112;-84
2021/08/28 11:15:29;;;;;;;5.63;1.50;;;;;;;16.76;100.00;100762.72;5054300;28;20017;-84